sensor_id;sensor_type;location;lat;lon;timestamp;P1;durP1;ratioP1;P2;durP2;ratioP2
44270;SDS011;29963;44.594;11.368;2024-01-30T00:01:15;39.33;;;27.73;;
44270;SDS011;29963;44.594;11.368;2024-01-30T00:03:41;79.43;;;27.88;;
44270;SDS011;29963;44.594;11.368;2024-01-30T00:06:07;41.80;;;27.48;;
44270;SDS011;29963;44.594;11.368;2024-01-30T00:08:33;44.63;;;25.88;;
44270;SDS011;29963;44.594;11.368;2024-01-30T00:10:59;63.53;;;28.33;;
44270;SDS011;29963;44.594;11.368;2024-01-30T00:13:25;43.92;;;26.98;;
44270;SDS011;29963;44.594;11.368;2024-01-30T00:15:52;46.33;;;26.60;;
44270;SDS011;29963;44.594;11.368;2024-01-30T00:18:17;68.15;;;31.05;;
44270;SDS011;29963;44.594;11.368;2024-01-30T00:20:43;37.90;;;26.77;;
44270;SDS011;29963;44.594;11.368;2024-01-30T00:23:09;39.00;;;26.95;;
44270;SDS011;29963;44.594;11.368;2024-01-30T00:25:35;43.60;;;26.67;;
44270;SDS011;29963;44.594;11.368;2024-01-30T00:28:00;48.03;;;30.27;;
44270;SDS011;29963;44.594;11.368;2024-01-30T00:30:26;38.75;;;27.23;;
44270;SDS011;29963;44.594;11.368;2024-01-30T00:32:51;40.83;;;28.73;;
44270;SDS011;29963;44.594;11.368;2024-01-30T00:35:17;40.63;;;26.17;;
44270;SDS011;29963;44.594;11.368;2024-01-30T00:37:43;51.40;;;27.40;;
44270;SDS011;29963;44.594;11.368;2024-01-30T00:40:08;41.25;;;27.77;;
44270;SDS011;29963;44.594;11.368;2024-01-30T00:42:40;36.90;;;27.13;;
44270;SDS011;29963;44.594;11.368;2024-01-30T00:45:12;38.78;;;26.23;;
44270;SDS011;29963;44.594;11.368;2024-01-30T00:47:39;41.97;;;27.27;;
44270;SDS011;29963;44.594;11.368;2024-01-30T00:50:04;39.95;;;27.13;;
44270;SDS011;29963;44.594;11.368;2024-01-30T00:52:30;37.08;;;25.40;;
44270;SDS011;29963;44.594;11.368;2024-01-30T00:55:01;32.50;;;24.02;;
44270;SDS011;29963;44.594;11.368;2024-01-30T00:57:27;36.78;;;25.45;;
44270;SDS011;29963;44.594;11.368;2024-01-30T00:59:53;51.28;;;26.80;;
44270;SDS011;29963;44.594;11.368;2024-01-30T01:02:19;36.40;;;24.08;;
44270;SDS011;29963;44.594;11.368;2024-01-30T01:04:45;35.80;;;26.27;;
44270;SDS011;29963;44.594;11.368;2024-01-30T01:07:11;40.63;;;26.80;;
44270;SDS011;29963;44.594;11.368;2024-01-30T01:09:36;34.60;;;24.25;;
44270;SDS011;29963;44.594;11.368;2024-01-30T01:12:02;35.45;;;25.30;;
44270;SDS011;29963;44.594;11.368;2024-01-30T01:14:28;38.35;;;27.85;;
44270;SDS011;29963;44.594;11.368;2024-01-30T01:16:54;46.80;;;26.27;;
44270;SDS011;29963;44.594;11.368;2024-01-30T01:19:21;34.63;;;23.58;;
44270;SDS011;29963;44.594;11.368;2024-01-30T01:21:46;40.75;;;25.15;;
44270;SDS011;29963;44.594;11.368;2024-01-30T01:24:12;31.48;;;23.38;;
44270;SDS011;29963;44.594;11.368;2024-01-30T01:26:38;34.63;;;24.60;;
44270;SDS011;29963;44.594;11.368;2024-01-30T01:29:03;38.75;;;24.40;;
44270;SDS011;29963;44.594;11.368;2024-01-30T01:31:35;33.20;;;22.90;;
44270;SDS011;29963;44.594;11.368;2024-01-30T01:34:04;33.53;;;24.90;;
44270;SDS011;29963;44.594;11.368;2024-01-30T01:36:30;35.03;;;25.27;;
44270;SDS011;29963;44.594;11.368;2024-01-30T01:38:56;38.85;;;22.83;;
44270;SDS011;29963;44.594;11.368;2024-01-30T01:41:22;32.85;;;23.30;;
44270;SDS011;29963;44.594;11.368;2024-01-30T01:43:47;31.60;;;22.25;;
44270;SDS011;29963;44.594;11.368;2024-01-30T01:46:13;34.08;;;23.98;;
44270;SDS011;29963;44.594;11.368;2024-01-30T01:48:38;33.85;;;23.77;;
44270;SDS011;29963;44.594;11.368;2024-01-30T01:51:05;47.67;;;24.45;;
44270;SDS011;29963;44.594;11.368;2024-01-30T01:53:31;36.92;;;23.08;;
44270;SDS011;29963;44.594;11.368;2024-01-30T01:55:57;38.95;;;26.77;;
44270;SDS011;29963;44.594;11.368;2024-01-30T01:58:23;38.63;;;25.38;;
44270;SDS011;29963;44.594;11.368;2024-01-30T02:00:53;52.47;;;27.20;;
44270;SDS011;29963;44.594;11.368;2024-01-30T02:03:19;37.20;;;26.05;;
44270;SDS011;29963;44.594;11.368;2024-01-30T02:05:49;41.72;;;24.08;;
44270;SDS011;29963;44.594;11.368;2024-01-30T02:08:16;43.72;;;24.90;;
44270;SDS011;29963;44.594;11.368;2024-01-30T02:10:41;49.42;;;23.02;;
44270;SDS011;29963;44.594;11.368;2024-01-30T02:13:07;58.17;;;25.63;;
44270;SDS011;29963;44.594;11.368;2024-01-30T02:15:33;41.20;;;23.58;;
44270;SDS011;29963;44.594;11.368;2024-01-30T02:17:58;51.25;;;24.13;;
44270;SDS011;29963;44.594;11.368;2024-01-30T02:20:24;37.25;;;25.80;;
44270;SDS011;29963;44.594;11.368;2024-01-30T02:22:51;50.30;;;25.73;;
44270;SDS011;29963;44.594;11.368;2024-01-30T02:25:19;36.33;;;25.95;;
44270;SDS011;29963;44.594;11.368;2024-01-30T02:27:45;51.58;;;24.70;;
44270;SDS011;29963;44.594;11.368;2024-01-30T02:30:10;37.58;;;24.15;;
44270;SDS011;29963;44.594;11.368;2024-01-30T02:32:36;43.92;;;28.00;;
44270;SDS011;29963;44.594;11.368;2024-01-30T02:35:02;46.63;;;28.05;;
44270;SDS011;29963;44.594;11.368;2024-01-30T02:37:28;40.05;;;26.85;;
44270;SDS011;29963;44.594;11.368;2024-01-30T02:39:53;45.78;;;26.58;;
44270;SDS011;29963;44.594;11.368;2024-01-30T02:42:19;50.63;;;26.70;;
44270;SDS011;29963;44.594;11.368;2024-01-30T02:44:45;37.25;;;26.60;;
44270;SDS011;29963;44.594;11.368;2024-01-30T02:47:10;41.88;;;24.77;;
44270;SDS011;29963;44.594;11.368;2024-01-30T02:49:36;49.33;;;24.05;;
44270;SDS011;29963;44.594;11.368;2024-01-30T02:52:01;32.97;;;24.13;;
44270;SDS011;29963;44.594;11.368;2024-01-30T02:54:27;35.38;;;22.60;;
44270;SDS011;29963;44.594;11.368;2024-01-30T02:56:55;33.20;;;24.92;;
44270;SDS011;29963;44.594;11.368;2024-01-30T02:59:21;51.92;;;23.77;;
44270;SDS011;29963;44.594;11.368;2024-01-30T03:01:46;35.45;;;21.98;;
44270;SDS011;29963;44.594;11.368;2024-01-30T03:04:12;35.10;;;20.85;;
44270;SDS011;29963;44.594;11.368;2024-01-30T03:06:38;27.15;;;20.02;;
44270;SDS011;29963;44.594;11.368;2024-01-30T03:09:09;30.73;;;20.67;;
44270;SDS011;29963;44.594;11.368;2024-01-30T03:11:35;34.53;;;21.77;;
44270;SDS011;29963;44.594;11.368;2024-01-30T03:14:01;31.65;;;22.77;;
44270;SDS011;29963;44.594;11.368;2024-01-30T03:16:26;29.65;;;20.52;;
44270;SDS011;29963;44.594;11.368;2024-01-30T03:18:52;30.25;;;22.10;;
44270;SDS011;29963;44.594;11.368;2024-01-30T03:21:18;32.05;;;20.92;;
44270;SDS011;29963;44.594;11.368;2024-01-30T03:23:43;33.03;;;20.60;;
44270;SDS011;29963;44.594;11.368;2024-01-30T03:26:09;29.50;;;22.23;;
44270;SDS011;29963;44.594;11.368;2024-01-30T03:28:36;26.05;;;20.13;;
44270;SDS011;29963;44.594;11.368;2024-01-30T03:31:01;34.85;;;23.08;;
44270;SDS011;29963;44.594;11.368;2024-01-30T03:33:27;28.23;;;21.35;;
44270;SDS011;29963;44.594;11.368;2024-01-30T03:35:53;34.40;;;23.48;;
44270;SDS011;29963;44.594;11.368;2024-01-30T03:38:18;31.90;;;23.70;;
44270;SDS011;29963;44.594;11.368;2024-01-30T03:40:44;35.08;;;24.85;;
44270;SDS011;29963;44.594;11.368;2024-01-30T03:43:10;35.03;;;23.85;;
44270;SDS011;29963;44.594;11.368;2024-01-30T03:45:35;40.17;;;26.17;;
44270;SDS011;29963;44.594;11.368;2024-01-30T03:48:01;36.53;;;24.58;;
44270;SDS011;29963;44.594;11.368;2024-01-30T03:50:26;36.85;;;25.58;;
44270;SDS011;29963;44.594;11.368;2024-01-30T03:52:53;40.95;;;23.92;;
44270;SDS011;29963;44.594;11.368;2024-01-30T03:55:18;38.45;;;26.15;;
44270;SDS011;29963;44.594;11.368;2024-01-30T03:57:44;41.10;;;26.60;;
44270;SDS011;29963;44.594;11.368;2024-01-30T04:00:10;37.28;;;25.38;;
44270;SDS011;29963;44.594;11.368;2024-01-30T04:02:36;37.58;;;26.70;;
44270;SDS011;29963;44.594;11.368;2024-01-30T04:05:01;45.40;;;26.25;;
44270;SDS011;29963;44.594;11.368;2024-01-30T04:07:27;40.33;;;25.70;;
44270;SDS011;29963;44.594;11.368;2024-01-30T04:09:54;49.22;;;26.30;;
44270;SDS011;29963;44.594;11.368;2024-01-30T04:12:19;38.67;;;26.38;;
44270;SDS011;29963;44.594;11.368;2024-01-30T04:14:47;51.08;;;26.65;;
44270;SDS011;29963;44.594;11.368;2024-01-30T04:17:13;37.20;;;26.30;;
44270;SDS011;29963;44.594;11.368;2024-01-30T04:19:39;45.92;;;27.48;;
44270;SDS011;29963;44.594;11.368;2024-01-30T04:22:05;63.83;;;27.55;;
44270;SDS011;29963;44.594;11.368;2024-01-30T04:24:31;48.40;;;28.48;;
44270;SDS011;29963;44.594;11.368;2024-01-30T04:26:57;41.97;;;28.48;;
44270;SDS011;29963;44.594;11.368;2024-01-30T04:29:22;49.53;;;27.80;;
44270;SDS011;29963;44.594;11.368;2024-01-30T04:31:48;48.92;;;27.92;;
44270;SDS011;29963;44.594;11.368;2024-01-30T04:34:13;56.65;;;29.50;;
44270;SDS011;29963;44.594;11.368;2024-01-30T04:36:39;42.25;;;28.15;;
44270;SDS011;29963;44.594;11.368;2024-01-30T04:39:04;54.22;;;29.63;;
44270;SDS011;29963;44.594;11.368;2024-01-30T04:41:30;52.88;;;31.33;;
44270;SDS011;29963;44.594;11.368;2024-01-30T04:43:57;41.90;;;28.80;;
44270;SDS011;29963;44.594;11.368;2024-01-30T04:46:23;51.45;;;32.00;;
44270;SDS011;29963;44.594;11.368;2024-01-30T04:48:48;59.70;;;30.95;;
44270;SDS011;29963;44.594;11.368;2024-01-30T04:51:14;51.97;;;30.63;;
44270;SDS011;29963;44.594;11.368;2024-01-30T04:53:39;48.80;;;31.38;;
44270;SDS011;29963;44.594;11.368;2024-01-30T04:56:05;57.33;;;30.23;;
44270;SDS011;29963;44.594;11.368;2024-01-30T04:58:31;48.38;;;30.58;;
44270;SDS011;29963;44.594;11.368;2024-01-30T05:00:56;50.80;;;29.75;;
44270;SDS011;29963;44.594;11.368;2024-01-30T05:03:22;43.75;;;29.42;;
44270;SDS011;29963;44.594;11.368;2024-01-30T05:05:49;57.58;;;32.42;;
44270;SDS011;29963;44.594;11.368;2024-01-30T05:08:14;57.22;;;32.35;;
44270;SDS011;29963;44.594;11.368;2024-01-30T05:10:40;46.10;;;30.60;;
44270;SDS011;29963;44.594;11.368;2024-01-30T05:13:06;58.90;;;30.77;;
44270;SDS011;29963;44.594;11.368;2024-01-30T05:15:31;59.10;;;31.20;;
44270;SDS011;29963;44.594;11.368;2024-01-30T05:17:57;49.47;;;30.45;;
44270;SDS011;29963;44.594;11.368;2024-01-30T05:20:22;46.97;;;28.90;;
44270;SDS011;29963;44.594;11.368;2024-01-30T05:22:48;52.60;;;30.23;;
44270;SDS011;29963;44.594;11.368;2024-01-30T05:25:13;56.53;;;33.08;;
44270;SDS011;29963;44.594;11.368;2024-01-30T05:27:39;48.30;;;31.83;;
44270;SDS011;29963;44.594;11.368;2024-01-30T05:30:08;50.00;;;31.20;;
44270;SDS011;29963;44.594;11.368;2024-01-30T05:32:34;50.88;;;30.65;;
44270;SDS011;29963;44.594;11.368;2024-01-30T05:34:59;51.58;;;31.52;;
44270;SDS011;29963;44.594;11.368;2024-01-30T05:37:25;50.67;;;29.80;;
44270;SDS011;29963;44.594;11.368;2024-01-30T05:39:51;62.65;;;30.77;;
44270;SDS011;29963;44.594;11.368;2024-01-30T05:42:16;54.03;;;30.60;;
44270;SDS011;29963;44.594;11.368;2024-01-30T05:44:42;53.13;;;31.58;;
44270;SDS011;29963;44.594;11.368;2024-01-30T05:47:10;55.05;;;29.90;;
44270;SDS011;29963;44.594;11.368;2024-01-30T05:49:36;47.00;;;31.85;;
44270;SDS011;29963;44.594;11.368;2024-01-30T05:52:02;42.15;;;31.42;;
44270;SDS011;29963;44.594;11.368;2024-01-30T05:54:28;51.70;;;31.27;;
44270;SDS011;29963;44.594;11.368;2024-01-30T05:56:54;50.35;;;32.00;;
44270;SDS011;29963;44.594;11.368;2024-01-30T05:59:19;54.38;;;32.08;;
44270;SDS011;29963;44.594;11.368;2024-01-30T06:01:46;50.63;;;30.05;;
44270;SDS011;29963;44.594;11.368;2024-01-30T06:04:12;47.95;;;31.80;;
44270;SDS011;29963;44.594;11.368;2024-01-30T06:06:38;52.67;;;31.98;;
44270;SDS011;29963;44.594;11.368;2024-01-30T06:09:03;43.72;;;29.10;;
44270;SDS011;29963;44.594;11.368;2024-01-30T06:11:29;48.25;;;30.20;;
44270;SDS011;29963;44.594;11.368;2024-01-30T06:13:54;49.75;;;29.25;;
44270;SDS011;29963;44.594;11.368;2024-01-30T06:16:20;52.03;;;31.20;;
44270;SDS011;29963;44.594;11.368;2024-01-30T06:18:46;56.20;;;32.40;;
44270;SDS011;29963;44.594;11.368;2024-01-30T06:21:12;55.00;;;34.03;;
44270;SDS011;29963;44.594;11.368;2024-01-30T06:23:41;53.08;;;32.97;;
44270;SDS011;29963;44.594;11.368;2024-01-30T06:26:06;56.63;;;33.35;;
44270;SDS011;29963;44.594;11.368;2024-01-30T06:28:32;51.00;;;32.70;;
44270;SDS011;29963;44.594;11.368;2024-01-30T06:30:58;58.10;;;31.52;;
44270;SDS011;29963;44.594;11.368;2024-01-30T06:33:25;48.83;;;30.92;;
44270;SDS011;29963;44.594;11.368;2024-01-30T06:35:54;48.95;;;33.33;;
44270;SDS011;29963;44.594;11.368;2024-01-30T06:38:20;49.85;;;32.38;;
44270;SDS011;29963;44.594;11.368;2024-01-30T06:40:45;55.08;;;30.73;;
44270;SDS011;29963;44.594;11.368;2024-01-30T06:43:11;59.88;;;31.10;;
44270;SDS011;29963;44.594;11.368;2024-01-30T06:45:36;46.47;;;30.27;;
44270;SDS011;29963;44.594;11.368;2024-01-30T06:48:02;54.15;;;31.42;;
44270;SDS011;29963;44.594;11.368;2024-01-30T06:50:28;48.70;;;29.40;;
44270;SDS011;29963;44.594;11.368;2024-01-30T06:52:53;45.30;;;29.48;;
44270;SDS011;29963;44.594;11.368;2024-01-30T06:55:19;45.15;;;30.45;;
44270;SDS011;29963;44.594;11.368;2024-01-30T06:57:45;52.00;;;31.60;;
44270;SDS011;29963;44.594;11.368;2024-01-30T07:00:10;56.72;;;32.25;;
44270;SDS011;29963;44.594;11.368;2024-01-30T07:02:37;59.10;;;32.97;;
44270;SDS011;29963;44.594;11.368;2024-01-30T07:05:02;45.97;;;30.58;;
44270;SDS011;29963;44.594;11.368;2024-01-30T07:07:28;52.33;;;29.55;;
44270;SDS011;29963;44.594;11.368;2024-01-30T07:09:54;54.67;;;32.25;;
44270;SDS011;29963;44.594;11.368;2024-01-30T07:12:23;55.80;;;31.00;;
44270;SDS011;29963;44.594;11.368;2024-01-30T07:14:50;72.18;;;35.70;;
44270;SDS011;29963;44.594;11.368;2024-01-30T07:17:16;55.05;;;35.80;;
44270;SDS011;29963;44.594;11.368;2024-01-30T07:19:42;59.92;;;32.25;;
44270;SDS011;29963;44.594;11.368;2024-01-30T07:22:08;74.25;;;36.95;;
44270;SDS011;29963;44.594;11.368;2024-01-30T07:24:33;62.03;;;33.03;;
44270;SDS011;29963;44.594;11.368;2024-01-30T07:26:59;57.83;;;32.15;;
44270;SDS011;29963;44.594;11.368;2024-01-30T07:29:25;51.28;;;31.30;;
44270;SDS011;29963;44.594;11.368;2024-01-30T07:31:50;53.00;;;32.15;;
44270;SDS011;29963;44.594;11.368;2024-01-30T07:34:16;52.97;;;33.65;;
44270;SDS011;29963;44.594;11.368;2024-01-30T07:36:41;58.50;;;35.60;;
44270;SDS011;29963;44.594;11.368;2024-01-30T07:39:07;68.15;;;37.47;;
44270;SDS011;29963;44.594;11.368;2024-01-30T07:41:33;80.65;;;37.03;;
44270;SDS011;29963;44.594;11.368;2024-01-30T07:43:58;55.80;;;34.65;;
44270;SDS011;29963;44.594;11.368;2024-01-30T07:46:24;62.13;;;35.78;;
44270;SDS011;29963;44.594;11.368;2024-01-30T07:48:52;52.75;;;33.35;;
44270;SDS011;29963;44.594;11.368;2024-01-30T07:51:18;42.47;;;30.33;;
44270;SDS011;29963;44.594;11.368;2024-01-30T07:53:46;45.45;;;30.33;;
44270;SDS011;29963;44.594;11.368;2024-01-30T07:56:12;54.35;;;34.72;;
44270;SDS011;29963;44.594;11.368;2024-01-30T07:58:37;49.53;;;32.88;;
44270;SDS011;29963;44.594;11.368;2024-01-30T08:01:03;64.10;;;34.28;;
44270;SDS011;29963;44.594;11.368;2024-01-30T08:03:29;51.20;;;29.88;;
44270;SDS011;29963;44.594;11.368;2024-01-30T08:05:54;53.63;;;31.58;;
44270;SDS011;29963;44.594;11.368;2024-01-30T08:08:20;48.92;;;32.53;;
44270;SDS011;29963;44.594;11.368;2024-01-30T08:10:46;50.72;;;37.13;;
44270;SDS011;29963;44.594;11.368;2024-01-30T08:13:11;50.42;;;31.17;;
44270;SDS011;29963;44.594;11.368;2024-01-30T08:15:37;49.67;;;32.60;;
44270;SDS011;29963;44.594;11.368;2024-01-30T08:18:03;53.70;;;33.35;;
44270;SDS011;29963;44.594;11.368;2024-01-30T08:20:29;48.88;;;30.98;;
44270;SDS011;29963;44.594;11.368;2024-01-30T08:22:55;50.03;;;32.05;;
44270;SDS011;29963;44.594;11.368;2024-01-30T08:25:20;55.08;;;31.67;;
44270;SDS011;29963;44.594;11.368;2024-01-30T08:27:46;67.70;;;32.40;;
44270;SDS011;29963;44.594;11.368;2024-01-30T08:30:15;57.25;;;34.67;;
44270;SDS011;29963;44.594;11.368;2024-01-30T08:32:41;56.97;;;32.60;;
44270;SDS011;29963;44.594;11.368;2024-01-30T08:35:06;49.45;;;33.40;;
44270;SDS011;29963;44.594;11.368;2024-01-30T08:37:33;59.63;;;33.45;;
44270;SDS011;29963;44.594;11.368;2024-01-30T08:39:59;68.57;;;34.90;;
44270;SDS011;29963;44.594;11.368;2024-01-30T08:42:24;56.53;;;34.15;;
44270;SDS011;29963;44.594;11.368;2024-01-30T08:44:51;49.80;;;31.42;;
44270;SDS011;29963;44.594;11.368;2024-01-30T08:47:18;52.92;;;32.38;;
44270;SDS011;29963;44.594;11.368;2024-01-30T08:49:44;52.17;;;32.95;;
44270;SDS011;29963;44.594;11.368;2024-01-30T08:52:12;48.78;;;33.50;;
44270;SDS011;29963;44.594;11.368;2024-01-30T08:54:37;55.05;;;34.35;;
44270;SDS011;29963;44.594;11.368;2024-01-30T08:57:03;56.33;;;35.75;;
44270;SDS011;29963;44.594;11.368;2024-01-30T08:59:29;56.80;;;37.35;;
44270;SDS011;29963;44.594;11.368;2024-01-30T09:01:55;69.15;;;38.20;;
44270;SDS011;29963;44.594;11.368;2024-01-30T09:04:22;65.82;;;36.30;;
44270;SDS011;29963;44.594;11.368;2024-01-30T09:06:48;58.70;;;33.75;;
44270;SDS011;29963;44.594;11.368;2024-01-30T09:09:14;66.15;;;37.08;;
44270;SDS011;29963;44.594;11.368;2024-01-30T09:11:40;62.17;;;37.38;;
44270;SDS011;29963;44.594;11.368;2024-01-30T09:14:05;66.43;;;36.83;;
44270;SDS011;29963;44.594;11.368;2024-01-30T09:16:31;76.82;;;42.40;;
44270;SDS011;29963;44.594;11.368;2024-01-30T09:18:59;62.25;;;39.35;;
44270;SDS011;29963;44.594;11.368;2024-01-30T09:21:25;68.25;;;40.85;;
44270;SDS011;29963;44.594;11.368;2024-01-30T09:23:54;77.97;;;43.17;;
44270;SDS011;29963;44.594;11.368;2024-01-30T09:26:20;72.75;;;42.17;;
44270;SDS011;29963;44.594;11.368;2024-01-30T09:28:45;76.35;;;42.28;;
44270;SDS011;29963;44.594;11.368;2024-01-30T09:31:11;63.78;;;40.40;;
44270;SDS011;29963;44.594;11.368;2024-01-30T09:33:37;64.88;;;39.13;;
44270;SDS011;29963;44.594;11.368;2024-01-30T09:36:05;64.65;;;36.78;;
44270;SDS011;29963;44.594;11.368;2024-01-30T09:38:31;68.07;;;37.38;;
44270;SDS011;29963;44.594;11.368;2024-01-30T09:40:56;60.05;;;37.80;;
44270;SDS011;29963;44.594;11.368;2024-01-30T09:43:28;60.90;;;38.05;;
44270;SDS011;29963;44.594;11.368;2024-01-30T09:45:59;65.88;;;37.45;;
44270;SDS011;29963;44.594;11.368;2024-01-30T09:48:27;58.88;;;37.08;;
44270;SDS011;29963;44.594;11.368;2024-01-30T09:50:58;53.53;;;33.60;;
44270;SDS011;29963;44.594;11.368;2024-01-30T09:53:24;54.15;;;32.70;;
44270;SDS011;29963;44.594;11.368;2024-01-30T09:55:50;55.20;;;35.20;;
44270;SDS011;29963;44.594;11.368;2024-01-30T09:58:16;48.65;;;31.33;;
44270;SDS011;29963;44.594;11.368;2024-01-30T10:00:42;45.35;;;31.55;;
44270;SDS011;29963;44.594;11.368;2024-01-30T10:03:08;46.25;;;30.85;;
44270;SDS011;29963;44.594;11.368;2024-01-30T10:05:34;47.90;;;32.10;;
44270;SDS011;29963;44.594;11.368;2024-01-30T10:08:05;50.05;;;31.77;;
44270;SDS011;29963;44.594;11.368;2024-01-30T10:10:33;48.03;;;31.95;;
44270;SDS011;29963;44.594;11.368;2024-01-30T10:12:59;48.08;;;31.65;;
44270;SDS011;29963;44.594;11.368;2024-01-30T10:15:25;44.53;;;29.83;;
44270;SDS011;29963;44.594;11.368;2024-01-30T10:17:52;45.38;;;30.98;;
44270;SDS011;29963;44.594;11.368;2024-01-30T10:20:18;42.72;;;29.88;;
44270;SDS011;29963;44.594;11.368;2024-01-30T10:22:44;44.03;;;28.90;;
44270;SDS011;29963;44.594;11.368;2024-01-30T10:25:11;44.03;;;30.50;;
44270;SDS011;29963;44.594;11.368;2024-01-30T10:27:36;44.92;;;30.25;;
44270;SDS011;29963;44.594;11.368;2024-01-30T10:30:04;46.35;;;29.98;;
44270;SDS011;29963;44.594;11.368;2024-01-30T10:32:30;49.85;;;30.50;;
44270;SDS011;29963;44.594;11.368;2024-01-30T10:34:56;42.83;;;28.45;;
44270;SDS011;29963;44.594;11.368;2024-01-30T10:37:21;47.55;;;30.73;;
44270;SDS011;29963;44.594;11.368;2024-01-30T10:39:51;42.95;;;30.42;;
44270;SDS011;29963;44.594;11.368;2024-01-30T10:42:18;41.25;;;27.83;;
44270;SDS011;29963;44.594;11.368;2024-01-30T10:47:30;39.67;;;28.00;;
44270;SDS011;29963;44.594;11.368;2024-01-30T10:49:59;44.20;;;30.70;;
44270;SDS011;29963;44.594;11.368;2024-01-30T10:52:25;44.40;;;30.92;;
44270;SDS011;29963;44.594;11.368;2024-01-30T10:54:51;43.38;;;30.77;;
44270;SDS011;29963;44.594;11.368;2024-01-30T10:57:18;40.60;;;29.70;;
44270;SDS011;29963;44.594;11.368;2024-01-30T10:59:44;40.83;;;28.90;;
44270;SDS011;29963;44.594;11.368;2024-01-30T11:02:12;41.70;;;29.33;;
44270;SDS011;29963;44.594;11.368;2024-01-30T11:04:40;38.58;;;29.25;;
44270;SDS011;29963;44.594;11.368;2024-01-30T11:07:19;43.53;;;30.55;;
44270;SDS011;29963;44.594;11.368;2024-01-30T11:09:54;43.03;;;28.05;;
44270;SDS011;29963;44.594;11.368;2024-01-30T11:12:28;56.15;;;30.90;;
44270;SDS011;29963;44.594;11.368;2024-01-30T11:15:05;51.90;;;32.58;;
44270;SDS011;29963;44.594;11.368;2024-01-30T11:20:09;50.83;;;32.55;;
44270;SDS011;29963;44.594;11.368;2024-01-30T11:23:00;52.70;;;32.95;;
44270;SDS011;29963;44.594;11.368;2024-01-30T11:25:30;47.10;;;32.20;;
44270;SDS011;29963;44.594;11.368;2024-01-30T11:27:57;50.75;;;33.90;;
44270;SDS011;29963;44.594;11.368;2024-01-30T11:35:30;49.85;;;34.85;;
44270;SDS011;29963;44.594;11.368;2024-01-30T11:37:57;56.10;;;35.40;;
44270;SDS011;29963;44.594;11.368;2024-01-30T11:40:24;56.95;;;37.47;;
44270;SDS011;29963;44.594;11.368;2024-01-30T11:42:52;54.60;;;35.25;;
44270;SDS011;29963;44.594;11.368;2024-01-30T11:45:19;57.67;;;35.85;;
44270;SDS011;29963;44.594;11.368;2024-01-30T11:47:45;49.53;;;34.40;;
44270;SDS011;29963;44.594;11.368;2024-01-30T11:50:11;54.22;;;35.47;;
44270;SDS011;29963;44.594;11.368;2024-01-30T11:52:36;52.22;;;34.92;;
44270;SDS011;29963;44.594;11.368;2024-01-30T11:55:02;51.40;;;35.08;;
44270;SDS011;29963;44.594;11.368;2024-01-30T11:57:29;47.97;;;35.83;;
44270;SDS011;29963;44.594;11.368;2024-01-30T11:59:55;45.25;;;32.80;;
44270;SDS011;29963;44.594;11.368;2024-01-30T12:02:20;48.75;;;34.78;;
44270;SDS011;29963;44.594;11.368;2024-01-30T12:04:46;47.67;;;33.80;;
44270;SDS011;29963;44.594;11.368;2024-01-30T12:07:12;41.83;;;32.45;;
44270;SDS011;29963;44.594;11.368;2024-01-30T12:09:40;47.55;;;33.72;;
44270;SDS011;29963;44.594;11.368;2024-01-30T12:12:07;46.72;;;33.03;;
44270;SDS011;29963;44.594;11.368;2024-01-30T12:14:37;46.08;;;33.30;;
44270;SDS011;29963;44.594;11.368;2024-01-30T12:17:06;43.78;;;34.05;;
44270;SDS011;29963;44.594;11.368;2024-01-30T12:19:33;46.00;;;33.38;;
44270;SDS011;29963;44.594;11.368;2024-01-30T12:22:02;41.28;;;32.42;;
44270;SDS011;29963;44.594;11.368;2024-01-30T12:24:28;43.53;;;33.88;;
44270;SDS011;29963;44.594;11.368;2024-01-30T12:26:57;44.88;;;31.73;;
44270;SDS011;29963;44.594;11.368;2024-01-30T12:29:23;40.03;;;32.00;;
44270;SDS011;29963;44.594;11.368;2024-01-30T12:31:52;39.05;;;30.42;;
44270;SDS011;29963;44.594;11.368;2024-01-30T12:34:18;37.97;;;31.02;;
44270;SDS011;29963;44.594;11.368;2024-01-30T12:36:46;40.15;;;30.92;;
44270;SDS011;29963;44.594;11.368;2024-01-30T12:39:13;40.35;;;29.55;;
44270;SDS011;29963;44.594;11.368;2024-01-30T12:41:40;42.45;;;31.63;;
44270;SDS011;29963;44.594;11.368;2024-01-30T12:44:05;41.15;;;30.80;;
44270;SDS011;29963;44.594;11.368;2024-01-30T12:46:32;42.65;;;30.92;;
44270;SDS011;29963;44.594;11.368;2024-01-30T12:48:59;44.65;;;32.45;;
44270;SDS011;29963;44.594;11.368;2024-01-30T12:51:25;45.05;;;31.08;;
44270;SDS011;29963;44.594;11.368;2024-01-30T12:53:51;40.50;;;30.75;;
44270;SDS011;29963;44.594;11.368;2024-01-30T12:56:16;40.95;;;32.67;;
44270;SDS011;29963;44.594;11.368;2024-01-30T12:58:42;40.70;;;31.33;;
44270;SDS011;29963;44.594;11.368;2024-01-30T13:01:08;39.58;;;31.20;;
44270;SDS011;29963;44.594;11.368;2024-01-30T13:03:34;45.25;;;32.72;;
44270;SDS011;29963;44.594;11.368;2024-01-30T13:06:00;41.88;;;29.88;;
44270;SDS011;29963;44.594;11.368;2024-01-30T13:08:26;39.92;;;32.53;;
44270;SDS011;29963;44.594;11.368;2024-01-30T13:10:52;41.85;;;32.25;;
44270;SDS011;29963;44.594;11.368;2024-01-30T13:13:17;41.42;;;30.35;;
44270;SDS011;29963;44.594;11.368;2024-01-30T13:15:43;49.30;;;32.42;;
44270;SDS011;29963;44.594;11.368;2024-01-30T13:18:09;36.80;;;29.00;;
44270;SDS011;29963;44.594;11.368;2024-01-30T13:20:35;39.22;;;30.75;;
44270;SDS011;29963;44.594;11.368;2024-01-30T13:23:00;39.67;;;30.48;;
44270;SDS011;29963;44.594;11.368;2024-01-30T13:25:26;35.75;;;29.38;;
44270;SDS011;29963;44.594;11.368;2024-01-30T13:27:52;40.20;;;30.50;;
44270;SDS011;29963;44.594;11.368;2024-01-30T13:30:17;40.03;;;30.80;;
44270;SDS011;29963;44.594;11.368;2024-01-30T13:32:43;41.28;;;31.13;;
44270;SDS011;29963;44.594;11.368;2024-01-30T13:35:09;37.38;;;29.67;;
44270;SDS011;29963;44.594;11.368;2024-01-30T13:37:35;44.90;;;31.30;;
44270;SDS011;29963;44.594;11.368;2024-01-30T13:40:02;37.20;;;29.90;;
44270;SDS011;29963;44.594;11.368;2024-01-30T13:42:32;44.92;;;31.17;;
44270;SDS011;29963;44.594;11.368;2024-01-30T13:44:57;38.67;;;29.38;;
44270;SDS011;29963;44.594;11.368;2024-01-30T13:47:23;42.63;;;31.63;;
44270;SDS011;29963;44.594;11.368;2024-01-30T13:49:49;39.30;;;29.73;;
44270;SDS011;29963;44.594;11.368;2024-01-30T13:52:14;37.78;;;29.63;;
44270;SDS011;29963;44.594;11.368;2024-01-30T13:54:40;40.92;;;31.08;;
44270;SDS011;29963;44.594;11.368;2024-01-30T13:57:05;45.20;;;32.60;;
44270;SDS011;29963;44.594;11.368;2024-01-30T13:59:32;39.72;;;31.05;;
44270;SDS011;29963;44.594;11.368;2024-01-30T14:01:58;40.58;;;31.17;;
44270;SDS011;29963;44.594;11.368;2024-01-30T14:04:23;40.33;;;32.17;;
44270;SDS011;29963;44.594;11.368;2024-01-30T14:06:49;40.58;;;31.63;;
44270;SDS011;29963;44.594;11.368;2024-01-30T14:09:15;39.60;;;32.72;;
44270;SDS011;29963;44.594;11.368;2024-01-30T14:11:41;41.80;;;33.45;;
44270;SDS011;29963;44.594;11.368;2024-01-30T14:14:06;40.28;;;32.72;;